createdAt,value
2023-02-13T00:01:29.415Z,8.15
2023-02-13T00:03:01.741Z,8.14
2023-02-13T00:04:34.809Z,8.12
2023-02-13T00:06:07.060Z,8.10
2023-02-13T00:07:39.095Z,8.10
2023-02-13T00:09:11.495Z,8.08
2023-02-13T00:10:43.531Z,8.08
2023-02-13T00:12:15.594Z,8.06
2023-02-13T00:13:47.751Z,8.05
2023-02-13T00:15:19.730Z,8.06
2023-02-13T00:16:51.748Z,8.05
2023-02-13T00:18:23.848Z,8.03
2023-02-13T00:19:56.104Z,8.03
2023-02-13T00:21:28.120Z,8.02
2023-02-13T00:23:00.396Z,7.99
2023-02-13T00:24:32.450Z,7.97
2023-02-13T00:26:10.244Z,7.95
2023-02-13T00:27:43.156Z,7.95
2023-02-13T00:29:15.174Z,7.95
2023-02-13T00:30:47.551Z,7.94
2023-02-13T00:32:19.685Z,7.91
2023-02-13T00:33:51.904Z,7.90
2023-02-13T00:35:24.059Z,7.90
2023-02-13T00:36:58.023Z,7.86
2023-02-13T00:38:30.992Z,7.84
2023-02-13T00:40:03.002Z,7.85
2023-02-13T00:41:35.287Z,7.80
2023-02-13T00:43:07.311Z,7.79
2023-02-13T00:44:41.497Z,7.76
2023-02-13T00:46:14.090Z,7.75
2023-02-13T00:47:46.316Z,7.73
2023-02-13T00:49:18.719Z,7.73
2023-02-13T00:50:52.766Z,7.73
2023-02-13T00:52:24.836Z,7.72
2023-02-13T00:53:56.985Z,7.70
2023-02-13T00:55:29.204Z,7.71
2023-02-13T00:57:01.370Z,7.71
2023-02-13T00:58:33.778Z,7.69
2023-02-13T01:00:07.428Z,7.65
2023-02-13T01:01:39.575Z,7.64
2023-02-13T01:03:11.852Z,7.63
2023-02-13T01:04:44.089Z,7.65
2023-02-13T01:06:16.226Z,7.63
2023-02-13T01:07:48.308Z,7.60
2023-02-13T01:09:20.514Z,7.58
2023-02-13T01:10:57.414Z,7.55
2023-02-13T01:12:29.852Z,7.54
2023-02-13T01:14:02.095Z,7.54
2023-02-13T01:15:34.585Z,7.53
2023-02-13T01:17:06.927Z,7.51
2023-02-13T01:18:39.731Z,7.49
2023-02-13T01:20:13.378Z,7.48
2023-02-13T01:21:45.458Z,7.48
2023-02-13T01:23:17.676Z,7.49
2023-02-13T01:24:50.138Z,7.46
2023-02-13T01:26:37.645Z,7.43
2023-02-13T01:28:10.156Z,7.43
2023-02-13T01:29:44.627Z,7.40
2023-02-13T01:31:17.014Z,7.39
2023-02-13T01:32:52.405Z,7.37
2023-02-13T01:34:24.887Z,7.33
2023-02-13T01:35:57.047Z,7.32
2023-02-13T01:37:29.228Z,7.26
2023-02-13T01:39:03.788Z,7.26
2023-02-13T01:40:36.680Z,7.23
2023-02-13T01:42:38.081Z,7.19
2023-02-13T01:44:47.862Z,7.15
2023-02-13T01:46:37.704Z,7.13
2023-02-13T01:48:12.558Z,7.09
2023-02-13T01:49:46.634Z,7.04
2023-02-13T01:51:25.687Z,7.00
2023-02-13T01:53:15.056Z,6.94
2023-02-13T01:54:47.331Z,6.87
2023-02-13T01:56:47.246Z,6.87
2023-02-13T01:58:21.780Z,6.78
2023-02-13T01:59:59.175Z,6.76
2023-02-13T02:01:33.050Z,6.74
2023-02-13T02:03:16.241Z,6.72
2023-02-13T02:04:48.721Z,6.66
2023-02-13T02:06:27.656Z,6.66
2023-02-13T02:08:00.813Z,6.63
2023-02-13T02:09:34.992Z,6.61
2023-02-13T02:11:28.298Z,6.56
2023-02-13T02:13:20.992Z,6.57
2023-02-13T02:14:54.886Z,6.55
2023-02-13T02:16:28.873Z,6.50
2023-02-13T02:18:01.154Z,6.44
2023-02-13T02:19:44.738Z,6.46
2023-02-13T02:21:45.981Z,6.43
2023-02-13T02:23:41.202Z,6.40
2023-02-13T02:25:54.764Z,6.37
2023-02-13T02:27:47.216Z,6.33
2023-02-13T02:29:43.586Z,6.26
2023-02-13T02:31:19.581Z,6.23
2023-02-13T02:32:54.417Z,6.12
2023-02-13T02:34:46.558Z,6.15
2023-02-13T02:36:29.624Z,6.10
2023-02-13T02:38:26.795Z,6.09
2023-02-13T02:40:12.879Z,6.01
2023-02-13T02:42:27.038Z,6.00
2023-02-13T02:44:29.107Z,5.94
2023-02-13T02:46:09.254Z,5.91
2023-02-13T02:48:02.661Z,5.91
2023-02-13T02:49:54.890Z,5.92
2023-02-13T02:51:37.619Z,5.85
2023-02-13T02:53:29.055Z,5.84
2023-02-13T02:55:07.988Z,5.80
2023-02-13T02:56:53.168Z,5.79
2023-02-13T02:58:57.444Z,5.78
2023-02-13T03:00:51.665Z,5.70
2023-02-13T03:02:42.479Z,5.74
2023-02-13T03:04:48.037Z,5.70
2023-02-13T03:06:46.392Z,5.72
2023-02-13T03:08:41.510Z,5.68
2023-02-13T03:10:41.158Z,5.63
2023-02-13T03:12:33.562Z,5.61
2023-02-13T03:14:07.753Z,5.56
2023-02-13T03:16:01.311Z,5.58
2023-02-13T03:17:52.052Z,5.57
2023-02-13T03:20:04.692Z,5.56
2023-02-13T03:22:10.747Z,5.52
2023-02-13T03:23:56.699Z,5.49
2023-02-13T03:25:34.674Z,5.47
2023-02-13T03:27:48.632Z,5.44
2023-02-13T03:29:45.136Z,5.37
2023-02-13T03:31:32.490Z,5.41
2023-02-13T03:33:10.591Z,5.50
2023-02-13T03:35:07.275Z,5.50
2023-02-13T03:37:11.274Z,5.48
2023-02-13T03:39:06.898Z,5.48
2023-02-13T03:41:16.236Z,5.43
2023-02-13T03:43:15.811Z,5.39
2023-02-13T03:47:04.682Z,5.35
2023-02-13T03:48:58.180Z,5.31
2023-02-13T03:50:30.255Z,5.30
2023-02-13T03:52:12.941Z,5.33
2023-02-13T03:53:47.371Z,5.34
2023-02-13T03:55:59.415Z,5.34
2023-02-13T03:57:52.802Z,5.33
2023-02-13T03:59:29.394Z,5.34
2023-02-13T04:01:03.096Z,5.36
2023-02-13T04:02:43.179Z,5.35
2023-02-13T04:04:41.574Z,5.35
2023-02-13T04:06:16.811Z,5.26
2023-02-13T04:07:49.309Z,5.23
2023-02-13T04:09:21.328Z,5.24
2023-02-13T04:10:58.463Z,5.21
2023-02-13T04:12:37.061Z,5.21
2023-02-13T04:14:16.156Z,5.19
2023-02-13T04:15:56.888Z,5.16
2023-02-13T04:17:34.730Z,5.14
2023-02-13T04:19:08.278Z,5.14
2023-02-13T04:20:40.446Z,5.12
2023-02-13T04:22:12.637Z,5.11
2023-02-13T04:23:44.593Z,5.11
2023-02-13T04:25:18.052Z,5.10
2023-02-13T04:26:53.410Z,5.06
2023-02-13T04:28:25.644Z,5.05
2023-02-13T04:29:57.754Z,5.02
2023-02-13T04:31:30.047Z,5.00
2023-02-13T04:33:02.275Z,5.00
2023-02-13T04:34:34.811Z,4.98
2023-02-13T04:36:09.828Z,4.96
2023-02-13T04:37:44.282Z,4.93
2023-02-13T04:39:16.320Z,4.96
2023-02-13T04:40:48.351Z,4.97
2023-02-13T04:42:20.410Z,4.98
2023-02-13T04:43:52.816Z,4.98
2023-02-13T04:45:24.823Z,4.97
2023-02-13T04:46:56.858Z,4.95
2023-02-13T04:48:28.945Z,4.91
2023-02-13T04:50:00.937Z,4.90
2023-02-13T04:51:32.955Z,4.89
2023-02-13T04:53:05.216Z,4.85
2023-02-13T04:54:37.171Z,4.82
2023-02-13T04:56:09.225Z,4.83
2023-02-13T04:57:41.269Z,4.81
2023-02-13T04:59:13.370Z,4.82
2023-02-13T05:00:45.423Z,4.81
2023-02-13T05:02:17.481Z,4.82
2023-02-13T05:03:49.596Z,4.80
2023-02-13T05:05:22.013Z,4.83
2023-02-13T05:06:54.027Z,4.82
2023-02-13T05:08:25.997Z,4.80
2023-02-13T05:10:01.422Z,4.80
2023-02-13T05:11:33.524Z,4.81
2023-02-13T05:13:05.570Z,4.85
2023-02-13T05:14:37.590Z,4.91
2023-02-13T05:16:09.664Z,5.01
2023-02-13T05:17:44.619Z,5.05
2023-02-13T05:19:17.139Z,5.08
2023-02-13T05:21:09.154Z,5.13
2023-02-13T05:23:05.934Z,5.18
2023-02-13T05:24:38.143Z,5.21
2023-02-13T05:26:10.257Z,5.24
2023-02-13T05:27:42.258Z,5.26
2023-02-13T05:29:20.581Z,5.31
2023-02-13T05:30:53.053Z,5.35
2023-02-13T05:32:25.117Z,5.39
2023-02-13T05:33:57.178Z,5.41
2023-02-13T05:35:29.144Z,5.43
2023-02-13T05:37:01.219Z,5.46
2023-02-13T05:38:33.477Z,5.46
2023-02-13T05:40:06.521Z,5.46
2023-02-13T05:41:38.526Z,5.48
2023-02-13T05:43:13.207Z,5.55
2023-02-13T05:44:57.459Z,5.57
2023-02-13T05:46:29.677Z,5.58
2023-02-13T05:48:01.763Z,5.59
2023-02-13T05:49:33.772Z,5.61
2023-02-13T05:51:05.940Z,5.64
2023-02-13T05:52:37.865Z,5.66
2023-02-13T05:54:09.939Z,5.69
2023-02-13T05:55:41.925Z,5.68
2023-02-13T05:57:13.931Z,5.67
2023-02-13T05:58:46.072Z,5.68
2023-02-13T06:00:18.581Z,5.67
2023-02-13T06:01:52.846Z,5.68
2023-02-13T06:03:29.186Z,5.69
2023-02-13T06:05:01.299Z,5.69
2023-02-13T06:06:33.288Z,5.69
2023-02-13T06:08:05.427Z,5.68
2023-02-13T06:09:37.363Z,5.66
2023-02-13T06:11:09.881Z,5.69
2023-02-13T06:12:43.473Z,5.73
2023-02-13T06:14:15.841Z,5.75
2023-02-13T06:15:48.354Z,5.75
2023-02-13T06:17:20.462Z,5.74
2023-02-13T06:18:52.520Z,5.74
2023-02-13T06:20:24.860Z,5.74
2023-02-13T06:21:57.026Z,5.74
2023-02-13T06:23:29.606Z,5.73
2023-02-13T06:25:05.405Z,5.69
2023-02-13T06:26:38.812Z,5.68
2023-02-13T06:28:11.423Z,5.64
2023-02-13T06:29:46.710Z,5.63
2023-02-13T06:31:19.111Z,5.59
2023-02-13T06:32:53.922Z,5.58
2023-02-13T06:34:26.210Z,5.56
2023-02-13T06:35:58.433Z,5.53
2023-02-13T06:37:33.757Z,5.50
2023-02-13T06:39:06.179Z,5.46
2023-02-13T06:40:38.493Z,5.46
2023-02-13T06:42:11.088Z,5.45
2023-02-13T06:43:46.185Z,5.46
2023-02-13T06:45:25.561Z,5.44
2023-02-13T06:46:59.986Z,5.41
2023-02-13T06:48:32.295Z,5.37
2023-02-13T06:50:04.613Z,5.34
2023-02-13T06:51:41.940Z,5.33
2023-02-13T06:54:28.742Z,5.34
2023-02-13T06:56:33.429Z,5.36
2023-02-13T06:58:51.948Z,5.35
2023-02-13T10:50:05.745Z,13.60
2023-02-13T10:52:38.002Z,13.66
2023-02-13T10:55:04.614Z,13.76
2023-02-13T10:57:18.127Z,14.06
2023-02-13T10:58:59.293Z,13.93
2023-02-13T11:01:43.598Z,13.93
2023-02-13T11:03:33.848Z,13.97
2023-02-13T11:06:00.043Z,13.83
2023-02-13T11:07:45.900Z,13.91
2023-02-13T12:40:42.866Z,14.81
2023-02-13T12:43:55.924Z,14.78
2023-02-13T16:21:49.003Z,13.20
2023-02-13T16:45:49.793Z,12.79
2023-02-13T20:32:23.808Z,7.93
2023-02-13T20:33:57.771Z,7.89
2023-02-13T20:35:29.951Z,7.87
2023-02-13T20:37:02.148Z,7.84
2023-02-13T20:38:34.421Z,7.76
2023-02-13T20:40:07.150Z,7.79
2023-02-13T20:41:40.195Z,7.79
2023-02-13T20:43:12.382Z,7.78
2023-02-13T20:44:44.454Z,7.76
2023-02-13T20:46:16.882Z,7.73
2023-02-13T20:47:49.128Z,7.74
2023-02-13T20:49:22.199Z,7.71
2023-02-13T20:50:59.725Z,7.69
2023-02-13T20:52:32.032Z,7.68
2023-02-13T20:54:27.828Z,7.67
2023-02-13T20:56:12.506Z,7.61
2023-02-13T20:57:44.854Z,7.61
2023-02-13T20:59:17.032Z,7.58
2023-02-13T21:00:49.477Z,7.57
2023-02-13T21:02:21.759Z,7.52
2023-02-13T21:03:55.558Z,7.50
2023-02-13T21:05:27.957Z,7.48
2023-02-13T21:07:00.724Z,7.46
2023-02-13T21:08:32.973Z,7.45
2023-02-13T21:10:06.714Z,7.43
2023-02-13T21:11:41.600Z,7.40
2023-02-13T21:13:14.060Z,7.39
2023-02-13T21:14:48.749Z,7.39
2023-02-13T21:16:23.913Z,7.32
2023-02-13T21:18:02.019Z,7.34
2023-02-13T21:19:34.959Z,7.31
2023-02-13T21:21:11.123Z,7.27
2023-02-13T21:22:48.409Z,7.25
2023-02-13T21:24:23.052Z,7.23
2023-02-13T21:25:56.132Z,7.23
2023-02-13T21:27:30.743Z,7.24
2023-02-13T21:29:06.704Z,7.21
2023-02-13T21:30:39.138Z,7.19
2023-02-13T21:32:11.458Z,7.16
2023-02-13T21:35:45.548Z,7.15
2023-02-13T21:37:39.978Z,7.14
2023-02-13T21:39:56.437Z,7.10
2023-02-13T21:41:28.876Z,7.06
2023-02-13T21:43:01.056Z,7.05
2023-02-13T21:44:33.843Z,7.03
2023-02-13T21:46:11.006Z,6.99
2023-02-13T21:47:45.017Z,6.97
2023-02-13T21:49:18.882Z,6.93
2023-02-13T21:50:51.111Z,6.87
2023-02-13T21:52:24.373Z,6.85
2023-02-13T21:53:59.802Z,6.83
2023-02-13T21:55:36.375Z,6.83
2023-02-13T21:57:08.591Z,6.80
2023-02-13T21:58:42.235Z,6.77
2023-02-13T22:00:15.931Z,6.77
2023-02-13T22:01:50.512Z,6.76
2023-02-13T22:03:32.388Z,6.75
2023-02-13T22:05:10.520Z,6.67
2023-02-13T22:07:04.722Z,6.59
2023-02-13T22:08:40.380Z,6.59
2023-02-13T22:10:13.030Z,6.59
2023-02-13T22:11:45.508Z,6.61
2023-02-13T22:13:28.937Z,6.58
2023-02-13T22:15:05.181Z,6.59
2023-02-13T22:16:56.628Z,6.58
2023-02-13T22:18:36.392Z,6.55
2023-02-13T22:20:29.696Z,6.55
2023-02-13T22:22:20.221Z,6.54
2023-02-13T22:24:19.869Z,6.51
2023-02-13T22:31:49.531Z,6.45
2023-02-13T22:33:40.463Z,6.41
2023-02-13T22:37:13.082Z,6.42
2023-02-13T22:38:10.097Z,6.36
2023-02-13T22:40:35.034Z,6.35
2023-02-13T22:42:24.604Z,6.32
2023-02-13T22:44:07.473Z,6.28
2023-02-13T22:45:40.238Z,6.26
2023-02-13T22:47:14.989Z,6.25
2023-02-13T22:48:47.988Z,6.24
2023-02-13T22:50:20.023Z,6.25
2023-02-13T22:51:52.271Z,6.22
2023-02-13T22:53:24.823Z,6.20
2023-02-13T22:54:57.339Z,6.18
2023-02-13T22:56:30.759Z,6.18
2023-02-13T22:58:03.121Z,6.19
2023-02-13T22:59:40.330Z,6.13
2023-02-13T23:01:14.642Z,6.11
2023-02-13T23:02:49.068Z,6.09
2023-02-13T23:04:23.174Z,6.06
2023-02-13T23:05:57.839Z,6.05
2023-02-13T23:07:30.126Z,6.02
2023-02-13T23:09:02.529Z,5.94
2023-02-13T23:10:43.036Z,5.93
2023-02-13T23:12:51.079Z,5.94
2023-02-13T23:14:25.232Z,5.94
2023-02-13T23:15:59.782Z,5.90
2023-02-13T23:17:50.785Z,5.92
2023-02-13T23:19:23.127Z,5.92
2023-02-13T23:20:55.538Z,5.92
2023-02-13T23:22:28.063Z,5.92
2023-02-13T23:24:03.119Z,5.96
2023-02-13T23:25:37.209Z,6.00
2023-02-13T23:27:13.194Z,6.06
2023-02-13T23:28:45.654Z,6.12
2023-02-13T23:30:19.343Z,6.10
2023-02-13T23:31:51.949Z,6.11
2023-02-13T23:33:24.470Z,6.11
2023-02-13T23:34:57.341Z,6.10
2023-02-13T23:36:30.600Z,6.10
2023-02-13T23:38:02.926Z,6.09
2023-02-13T23:39:35.362Z,6.09
2023-02-13T23:41:08.903Z,6.05
2023-02-13T23:42:42.040Z,6.00
2023-02-13T23:44:17.434Z,5.98
2023-02-13T23:45:53.265Z,5.98
2023-02-13T23:47:35.017Z,5.98
2023-02-13T23:49:23.399Z,5.99
2023-02-13T23:51:04.205Z,5.99
2023-02-13T23:52:55.577Z,6.01
2023-02-13T23:56:27.945Z,6.03
2023-02-13T23:56:59.357Z,6.03
2023-02-13T23:59:07.232Z,6.06
